createdAt,value
2017-02-12T00:00:15.904Z,0.18
2017-02-12T00:01:24.852Z,0.2
2017-02-12T00:02:33.805Z,0.28
2017-02-12T00:03:42.751Z,0.32
2017-02-12T00:04:51.696Z,0.23
2017-02-12T00:06:00.726Z,0.49
2017-02-12T00:07:09.671Z,0.41
2017-02-12T00:08:18.620Z,0.41
2017-02-12T00:09:28.303Z,0.41
2017-02-12T00:10:37.257Z,0.39
2017-02-12T00:11:46.205Z,0.32
2017-02-12T00:12:55.157Z,0.41
2017-02-12T00:14:04.515Z,0.46
2017-02-12T00:15:13.553Z,0.41
2017-02-12T00:16:22.506Z,0.31
2017-02-12T00:17:31.455Z,0.41
2017-02-12T00:18:40.405Z,0.38
2017-02-12T00:19:49.365Z,0.42
2017-02-12T00:20:58.316Z,0.41
2017-02-12T00:22:07.264Z,0.41
2017-02-12T00:23:16.215Z,0.46
2017-02-12T00:24:25.159Z,0.36
2017-02-12T00:25:34.114Z,0.42
2017-02-12T00:26:43.064Z,0.23
2017-02-12T00:27:52.011Z,0.28
2017-02-12T00:29:00.955Z,0.32
2017-02-12T00:30:09.906Z,0.29
2017-02-12T00:31:18.851Z,0.44
2017-02-12T00:32:27.794Z,0.39
2017-02-12T00:33:36.799Z,0.44
2017-02-12T00:34:45.744Z,0.42
2017-02-12T00:35:54.695Z,0.33
2017-02-12T00:37:03.645Z,0.23
2017-02-12T00:38:12.590Z,0.2
2017-02-12T00:39:21.533Z,0.17
2017-02-12T00:40:30.482Z,0.17
2017-02-12T00:41:39.436Z,0.13
2017-02-12T00:42:48.383Z,0.2
2017-02-12T00:43:57.414Z,0.15
2017-02-12T00:45:06.364Z,0.24
2017-02-12T00:46:15.308Z,0.24
2017-02-12T00:47:24.257Z,0.33
2017-02-12T00:48:33.200Z,0.26
2017-02-12T00:49:42.148Z,0.29
2017-02-12T00:50:51.184Z,0.24
2017-02-12T00:52:00.221Z,0.24
2017-02-12T00:53:09.580Z,0.32
2017-02-12T00:54:18.537Z,0.38
2017-02-12T00:55:27.483Z,0.33
2017-02-12T00:56:36.432Z,0.29
2017-02-12T00:57:45.379Z,0.28
2017-02-12T00:58:54.325Z,0.29
2017-02-12T01:00:03.279Z,0.21
2017-02-12T01:01:12.235Z,0.14
2017-02-12T01:02:21.187Z,0.1
2017-02-12T01:03:30.232Z,0.1
2017-02-12T01:04:39.185Z,0.1
2017-02-12T01:05:48.134Z,0.24
2017-02-12T01:06:57.168Z,0.2
2017-02-12T01:08:06.202Z,0.23
2017-02-12T01:09:15.191Z,0.26
2017-02-12T01:10:24.165Z,0.29
2017-02-12T01:11:33.527Z,0.28
2017-02-12T01:12:42.969Z,0.33
2017-02-12T01:13:51.917Z,0.24
2017-02-12T01:15:00.866Z,0.18
2017-02-12T01:16:09.813Z,0.23
2017-02-12T01:17:18.767Z,0.21
2017-02-12T01:18:27.713Z,0.26
2017-02-12T01:19:36.669Z,0.24
2017-02-12T01:20:45.716Z,0.23
2017-02-12T01:21:54.664Z,0.26
2017-02-12T01:23:03.607Z,0.35
2017-02-12T01:24:12.557Z,0.17
2017-02-12T01:25:21.508Z,0.15
2017-02-12T01:26:30.457Z,0.21
2017-02-12T01:27:39.403Z,0.2
2017-02-12T01:28:48.757Z,0.18
2017-02-12T01:29:57.705Z,0.24
2017-02-12T01:31:06.748Z,0.24
2017-02-12T01:32:15.693Z,0.29
2017-02-12T01:33:24.637Z,0.41
2017-02-12T01:34:33.579Z,0.32
2017-02-12T01:35:42.522Z,0.26
2017-02-12T01:36:51.471Z,0.29
2017-02-12T01:38:00.418Z,0.35
2017-02-12T01:39:09.375Z,0.38
2017-02-12T01:40:18.321Z,0.38
2017-02-12T01:41:27.268Z,0.39
2017-02-12T01:42:36.259Z,0.42
2017-02-12T01:43:45.612Z,0.49
2017-02-12T01:44:54.559Z,0.42
2017-02-12T01:46:03.509Z,0.35
2017-02-12T01:47:12.458Z,0.39
2017-02-12T01:48:21.405Z,0.47
2017-02-12T01:49:30.442Z,0.58
2017-02-12T01:50:39.390Z,0.57
2017-02-12T01:51:48.334Z,0.42
2017-02-12T01:52:57.279Z,0.38
2017-02-12T01:54:06.246Z,0.47
2017-02-12T01:55:15.197Z,0.38
2017-02-12T01:56:24.139Z,0.41
2017-02-12T01:57:33.494Z,0.41
2017-02-12T01:58:42.444Z,0.49
2017-02-12T01:59:51.480Z,0.49
2017-02-12T02:01:00.428Z,0.49
2017-02-12T02:02:09.374Z,0.5
2017-02-12T02:03:18.408Z,0.38
2017-02-12T02:04:27.440Z,0.28
2017-02-12T02:05:36.392Z,0.18
2017-02-12T02:06:45.339Z,0.17
2017-02-12T02:07:54.288Z,0.33
2017-02-12T02:09:03.232Z,0.33
2017-02-12T02:10:12.182Z,0.36
2017-02-12T02:11:21.132Z,0.35
2017-02-12T02:12:30.083Z,0.51
2017-02-12T02:13:39.119Z,0.57
2017-02-12T02:14:48.152Z,0.5
2017-02-12T02:15:57.100Z,0.46
2017-02-12T02:17:06.051Z,0.36
2017-02-12T02:18:14.999Z,0.31
2017-02-12T02:19:23.948Z,0.26
2017-02-12T02:20:33.302Z,0.31
2017-02-12T02:21:42.248Z,0.29
2017-02-12T02:22:51.191Z,0.44
2017-02-12T02:24:00.222Z,0.42
2017-02-12T02:25:09.171Z,0.33
2017-02-12T02:26:18.139Z,0.57
2017-02-12T02:27:27.087Z,0.51
2017-02-12T02:28:36.038Z,0.47
2017-02-12T02:29:45.071Z,0.57
2017-02-12T02:30:54.105Z,0.53
2017-02-12T02:32:03.057Z,0.53
2017-02-12T02:33:12.093Z,0.61
2017-02-12T02:34:21.130Z,0.61
2017-02-12T02:35:30.166Z,0.61
2017-02-12T02:36:39.117Z,0.62
2017-02-12T02:37:48.083Z,0.57
2017-02-12T02:38:57.031Z,0.51
2017-02-12T02:40:05.980Z,0.55
2017-02-12T02:41:14.928Z,0.5
2017-02-12T02:42:23.875Z,0.39
2017-02-12T02:43:32.824Z,0.33
2017-02-12T02:44:41.770Z,0.38
2017-02-12T02:45:50.719Z,0.5
2017-02-12T02:47:00.912Z,0.53
2017-02-12T02:48:09.859Z,0.53
2017-02-12T02:49:18.807Z,0.58
2017-02-12T02:50:27.756Z,0.53
2017-02-12T02:51:36.793Z,0.57
2017-02-12T02:52:45.746Z,0.61
2017-02-12T02:53:55.100Z,0.53
2017-02-12T02:55:04.454Z,0.58
2017-02-12T02:56:13.402Z,0.53
2017-02-12T02:57:22.350Z,0.51
2017-02-12T02:58:31.716Z,0.47
2017-02-12T02:59:40.749Z,0.55
2017-02-12T03:00:49.691Z,0.58
2017-02-12T03:01:58.638Z,0.58
2017-02-12T03:03:07.587Z,0.51
2017-02-12T03:04:16.616Z,0.51
2017-02-12T03:05:25.566Z,0.51
2017-02-12T03:06:34.511Z,0.41
2017-02-12T03:07:43.462Z,0.62
2017-02-12T03:08:52.418Z,0.57
2017-02-12T03:10:01.363Z,0.55
2017-02-12T03:11:10.311Z,0.51
2017-02-12T03:12:19.257Z,0.55
2017-02-12T03:13:28.209Z,0.55
2017-02-12T03:14:37.159Z,0.5
2017-02-12T03:15:46.194Z,0.38
2017-02-12T03:16:55.149Z,0.36
2017-02-12T03:18:04.095Z,0.5
2017-02-12T03:19:13.046Z,0.51
2017-02-12T03:20:22.402Z,0.51
2017-02-12T03:21:31.352Z,0.47
2017-02-12T03:22:40.302Z,0.53
2017-02-12T03:23:49.251Z,0.51
2017-02-12T03:24:58.194Z,0.47
2017-02-12T03:26:07.141Z,0.51
2017-02-12T03:27:16.088Z,0.47
2017-02-12T03:28:25.037Z,0.61
2017-02-12T03:29:33.983Z,0.58
2017-02-12T03:30:43.337Z,0.55
2017-02-12T03:31:52.285Z,0.44
2017-02-12T03:33:01.317Z,0.46
2017-02-12T03:34:10.261Z,0.51
2017-02-12T03:35:19.616Z,0.55
2017-02-12T03:36:28.565Z,0.47
2017-02-12T03:37:37.512Z,0.47
2017-02-12T03:38:46.459Z,0.41
2017-02-12T03:39:55.407Z,0.39
2017-02-12T03:41:04.387Z,0.35
2017-02-12T03:42:13.339Z,0.47
2017-02-12T03:43:22.374Z,0.53
2017-02-12T03:44:31.327Z,0.47
2017-02-12T03:45:40.273Z,0.35
2017-02-12T03:46:49.222Z,0.31
2017-02-12T03:47:58.170Z,0.29
2017-02-12T03:49:07.115Z,0.33
2017-02-12T03:50:16.081Z,0.24
2017-02-12T03:51:25.031Z,0.29
2017-02-12T03:52:33.982Z,0.33
2017-02-12T03:53:42.929Z,0.26
2017-02-12T03:54:51.874Z,0.28
2017-02-12T03:56:00.871Z,0.26
2017-02-12T03:57:09.823Z,0.32
2017-02-12T03:58:18.771Z,0.32
2017-02-12T03:59:27.716Z,0.41
2017-02-12T04:00:37.072Z,0.44
2017-02-12T04:01:46.032Z,0.41
2017-02-12T04:02:54.986Z,0.41
2017-02-12T04:04:03.931Z,0.41
2017-02-12T04:05:12.881Z,0.26
2017-02-12T04:06:21.830Z,0.32
2017-02-12T04:07:30.781Z,0.32
2017-02-12T04:08:39.729Z,0.32
2017-02-12T04:09:48.846Z,0.39
2017-02-12T04:10:57.796Z,0.24
2017-02-12T04:12:06.752Z,0.23
2017-02-12T04:13:15.872Z,0.11
2017-02-12T04:14:24.819Z,0.13
2017-02-12T04:15:33.770Z,0.17
2017-02-12T04:16:42.715Z,0.17
2017-02-12T04:17:51.671Z,0.21
2017-02-12T04:19:00.704Z,0.21
2017-02-12T04:20:09.648Z,0.17
2017-02-12T04:21:18.597Z,0.15
2017-02-12T04:22:27.539Z,0.1
2017-02-12T04:23:36.573Z,0.1
2017-02-12T04:24:45.611Z,0.11
2017-02-12T04:25:54.645Z,0.14
2017-02-12T04:27:03.599Z,0.14
2017-02-12T04:28:12.549Z,0.15
2017-02-12T04:29:21.499Z,0.18
2017-02-12T04:30:30.527Z,0.1
2017-02-12T04:31:42.507Z,0.03
2017-02-12T04:32:51.455Z,0.07
2017-02-12T04:34:00.400Z,0.03
2017-02-12T04:35:09.353Z,0.11
2017-02-12T04:36:18.301Z,0.08
2017-02-12T04:37:27.247Z,0.1
2017-02-12T04:38:36.647Z,0.02
2017-02-12T04:39:45.645Z,0.07
2017-02-12T04:40:54.696Z,0.02
2017-02-12T04:42:03.644Z,0.07
2017-02-12T04:43:12.589Z,0.03
2017-02-12T04:44:21.536Z,0.04
2017-02-12T04:45:30.482Z,0
2017-02-12T04:46:39.520Z,0.14
2017-02-12T04:47:48.466Z,0.08
2017-02-12T04:48:57.413Z,0.13
2017-02-12T04:50:06.774Z,0.15
2017-02-12T04:51:15.717Z,0.23
2017-02-12T04:52:24.664Z,0.11
2017-02-12T04:53:33.612Z,0.11
2017-02-12T04:54:42.965Z,0.13
2017-02-12T04:55:51.913Z,-0.01
2017-02-12T04:57:00.865Z,0.03
2017-02-12T04:58:09.815Z,-0.1
2017-02-12T04:59:18.790Z,-0.05
2017-02-12T05:00:27.823Z,0.03
2017-02-12T05:01:36.771Z,-0.04
2017-02-12T05:02:45.714Z,-0.08
2017-02-12T05:03:55.071Z,-0.1
2017-02-12T05:05:04.829Z,-0.07
2017-02-12T05:06:13.852Z,-0.05
2017-02-12T05:07:22.812Z,0.11
2017-02-12T05:08:31.761Z,0.11
2017-02-12T05:09:40.707Z,0.18
2017-02-12T05:10:49.652Z,0.13
2017-02-12T05:11:58.596Z,0.24
2017-02-12T05:13:07.542Z,0.15
2017-02-12T05:14:16.490Z,0.2
2017-02-12T05:15:25.439Z,0.18
2017-02-12T05:16:34.384Z,0.13
2017-02-12T05:17:43.683Z,0.28
2017-02-12T05:18:52.635Z,0.23
2017-02-12T05:20:01.585Z,0.17
2017-02-12T05:21:10.537Z,0.24
2017-02-12T05:22:19.490Z,0.24
2017-02-12T05:23:28.527Z,0.35
2017-02-12T05:24:38.185Z,0.32
2017-02-12T05:25:47.220Z,0.41
2017-02-12T05:26:56.532Z,0.26
2017-02-12T05:28:06.560Z,0.29
2017-02-12T05:29:16.169Z,0.21
2017-02-12T05:30:25.202Z,0.21
2017-02-12T05:31:34.202Z,0.17
2017-02-12T05:32:43.153Z,0.2
2017-02-12T05:33:52.187Z,0.18
2017-02-12T05:35:03.199Z,0.18
2017-02-12T05:36:12.149Z,0.21
2017-02-12T05:37:25.664Z,0.23
2017-02-12T05:38:37.417Z,0.23
2017-02-12T05:39:50.768Z,0.31
2017-02-12T05:41:01.207Z,0.33
2017-02-12T05:42:14.070Z,0.28
2017-02-12T05:43:27.022Z,0.26
2017-02-12T05:44:40.983Z,0.33
2017-02-12T05:45:52.120Z,0.32
2017-02-12T05:47:04.894Z,0.28
2017-02-12T05:48:16.073Z,0.21
2017-02-12T05:49:27.715Z,0.21
2017-02-12T05:50:40.227Z,0.23
2017-02-12T05:51:51.051Z,0.26
2017-02-12T05:53:01.300Z,0.28
2017-02-12T05:54:10.653Z,0.35
2017-02-12T05:55:25.055Z,0.33
2017-02-12T05:56:36.518Z,0.38
2017-02-12T05:57:51.223Z,0.31
2017-02-12T05:59:01.030Z,0.31
2017-02-12T06:00:16.420Z,0.28
2017-02-12T06:01:28.563Z,0.23
2017-02-12T06:02:37.512Z,0.36
2017-02-12T06:03:46.461Z,0.24
2017-02-12T06:04:55.499Z,0.32
2017-02-12T06:06:04.446Z,0.23
2017-02-12T06:07:13.393Z,0.23
2017-02-12T06:08:22.339Z,0.26
2017-02-12T06:09:32.106Z,0.29
2017-02-12T06:10:41.148Z,0.31
2017-02-12T06:11:50.187Z,0.33
2017-02-12T06:12:59.141Z,0.31
2017-02-12T06:14:08.088Z,0.26
2017-02-12T06:15:17.073Z,0.2
2017-02-12T06:16:26.021Z,0.23
2017-02-12T06:17:35.380Z,0.11
2017-02-12T06:18:44.329Z,0.2
2017-02-12T06:19:53.275Z,0.2
2017-02-12T06:21:02.221Z,0.17
2017-02-12T06:22:11.174Z,0.21
2017-02-12T06:23:20.127Z,0.13
2017-02-12T06:24:29.068Z,0.14
2017-02-12T06:25:38.018Z,0.08
2017-02-12T06:26:46.962Z,0.08
2017-02-12T06:27:55.909Z,0.03
2017-02-12T06:29:05.359Z,-0.05
2017-02-12T06:30:14.312Z,-0.05
2017-02-12T06:31:23.267Z,-0.07
2017-02-12T06:32:32.391Z,-0.14
2017-02-12T06:33:41.746Z,0.04
2017-02-12T06:34:50.695Z,-0.05
2017-02-12T06:36:00.048Z,-0.03
2017-02-12T06:37:08.998Z,-0.11
2017-02-12T06:38:17.944Z,-0.15
2017-02-12T06:39:26.890Z,-0.16
2017-02-12T06:40:35.834Z,-0.03
2017-02-12T06:41:44.780Z,-0.1
2017-02-12T06:42:53.772Z,-0.25
2017-02-12T06:44:02.724Z,-0.19
2017-02-12T06:45:11.760Z,-0.19
2017-02-12T06:46:20.712Z,-0.11
2017-02-12T06:47:29.660Z,-0.14
2017-02-12T06:48:38.697Z,-0.15
2017-02-12T06:49:47.646Z,-0.1
2017-02-12T06:50:56.589Z,-0.23
2017-02-12T06:52:05.538Z,-0.14
2017-02-12T06:53:14.491Z,-0.21
2017-02-12T06:54:23.437Z,-0.21
2017-02-12T06:55:32.384Z,-0.1
2017-02-12T06:56:41.339Z,-0.19
2017-02-12T06:57:50.288Z,0.03
2017-02-12T06:58:59.236Z,-0.03
2017-02-12T07:00:08.272Z,-0.1
2017-02-12T07:01:17.227Z,0.02
2017-02-12T07:02:26.180Z,0
2017-02-12T07:03:35.126Z,-0.19
2017-02-12T07:04:44.071Z,-0.15
2017-02-12T07:05:53.101Z,-0.15
2017-02-12T07:07:02.054Z,-0.1
2017-02-12T07:08:11.000Z,-0.1
2017-02-12T07:09:19.946Z,-0.03
2017-02-12T07:10:28.894Z,-0.18
2017-02-12T07:11:37.842Z,-0.1
2017-02-12T07:12:46.792Z,-0.04
2017-02-12T07:13:55.738Z,-0.15
2017-02-12T07:15:04.683Z,0
2017-02-12T07:16:13.629Z,-0.11
2017-02-12T07:17:22.576Z,-0.05
2017-02-12T07:18:31.522Z,-0.05
2017-02-12T07:19:40.465Z,-0.08
2017-02-12T07:20:49.453Z,-0.07
2017-02-12T07:21:58.400Z,-0.16
2017-02-12T07:23:07.349Z,-0.16
2017-02-12T07:24:16.296Z,-0.1
2017-02-12T07:25:25.242Z,-0.08
2017-02-12T07:26:34.185Z,0.02
2017-02-12T07:27:43.133Z,-0.05
2017-02-12T07:28:52.177Z,0
2017-02-12T07:30:01.133Z,-0.18
2017-02-12T07:31:10.082Z,0.02
2017-02-12T07:32:19.029Z,-0.11
2017-02-12T07:33:27.975Z,-0.05
2017-02-12T07:34:36.925Z,-0.01
2017-02-12T07:35:45.872Z,-0.07
2017-02-12T07:36:54.818Z,-0.01
2017-02-12T07:38:03.766Z,-0.04
2017-02-12T07:39:12.719Z,-0.03
2017-02-12T07:40:21.663Z,0.04
2017-02-12T07:41:30.618Z,0.03
2017-02-12T07:42:39.566Z,-0.03
2017-02-12T07:43:48.602Z,-0.01
2017-02-12T07:44:57.546Z,0.03
2017-02-12T07:46:06.498Z,0.03
2017-02-12T07:47:15.453Z,0.02
2017-02-12T07:48:24.401Z,0.11
2017-02-12T07:49:33.353Z,0.18
2017-02-12T07:50:42.303Z,0.14
2017-02-12T07:51:51.257Z,0.08
2017-02-12T07:53:00.210Z,0.11
2017-02-12T07:54:09.239Z,0.07
2017-02-12T07:55:18.185Z,0.11
2017-02-12T07:56:27.130Z,0.18
2017-02-12T07:57:36.081Z,0.08
2017-02-12T07:58:45.031Z,0.13
2017-02-12T07:59:53.993Z,0.18
2017-02-12T08:01:02.952Z,0.11
2017-02-12T08:02:11.945Z,0.14
2017-02-12T08:03:21.001Z,0.11
2017-02-12T08:04:29.947Z,0.08
2017-02-12T08:05:39.296Z,0.04
2017-02-12T08:06:48.246Z,0.15
2017-02-12T08:07:57.599Z,0.17
2017-02-12T08:09:06.552Z,0.11
2017-02-12T08:10:15.506Z,0.14
2017-02-12T08:11:24.456Z,0.13
2017-02-12T08:12:33.414Z,0.04
2017-02-12T08:13:42.768Z,0.1
2017-02-12T08:14:51.805Z,0.07
2017-02-12T08:16:00.749Z,0.07
2017-02-12T08:17:09.698Z,0.17
2017-02-12T08:18:18.640Z,0.11
2017-02-12T08:19:27.588Z,0.14
2017-02-12T08:20:36.626Z,0.13
2017-02-12T08:21:45.578Z,0.1
2017-02-12T08:22:54.931Z,0.1
2017-02-12T08:24:04.287Z,0
2017-02-12T08:25:13.325Z,0.15
2017-02-12T08:26:22.276Z,0.18
2017-02-12T08:27:31.307Z,0.1
2017-02-12T08:28:40.255Z,0.15
2017-02-12T08:29:49.212Z,0.11
2017-02-12T08:30:58.157Z,0.1
2017-02-12T08:32:07.105Z,0.1
2017-02-12T08:33:16.048Z,0.08
2017-02-12T08:34:24.996Z,0.07
2017-02-12T08:35:33.943Z,0.13
2017-02-12T08:36:42.981Z,0.14
2017-02-12T08:37:51.929Z,0.1
2017-02-12T08:39:00.878Z,0.15
2017-02-12T08:40:09.825Z,0.18
2017-02-12T08:41:18.865Z,0.14
2017-02-12T08:42:27.899Z,0.14
2017-02-12T08:43:36.940Z,0.17
2017-02-12T08:44:45.885Z,0.14
2017-02-12T08:45:55.236Z,0.21
2017-02-12T08:47:04.183Z,0.13
2017-02-12T08:48:13.173Z,0.17
2017-02-12T08:49:22.134Z,0.24
2017-02-12T08:50:31.080Z,0.28
2017-02-12T08:51:40.031Z,0.26
2017-02-12T08:52:49.066Z,0.29
2017-02-12T08:53:58.012Z,0.24
2017-02-12T08:55:06.969Z,0.31
2017-02-12T08:56:16.041Z,0.21
2017-02-12T08:57:24.995Z,0.26
2017-02-12T08:58:33.941Z,0.24
2017-02-12T08:59:42.895Z,0.32
2017-02-12T09:00:51.840Z,0.44
2017-02-12T09:02:00.785Z,0.42
2017-02-12T09:03:09.735Z,0.55
2017-02-12T09:04:18.680Z,0.57
2017-02-12T09:05:27.630Z,0.5
2017-02-12T09:06:36.621Z,0.5
2017-02-12T09:07:45.572Z,0.55
2017-02-12T09:08:54.523Z,0.53
2017-02-12T09:10:03.883Z,0.62
2017-02-12T09:11:12.829Z,0.46
2017-02-12T09:12:21.778Z,0.57
2017-02-12T09:13:30.730Z,0.6
2017-02-12T09:14:39.683Z,0.66
2017-02-12T09:15:48.627Z,0.73
2017-02-12T09:16:57.581Z,0.65
2017-02-12T09:18:06.530Z,0.68
2017-02-12T09:19:15.479Z,0.76
2017-02-12T09:20:24.421Z,0.72
2017-02-12T09:21:33.364Z,0.68
2017-02-12T09:22:42.310Z,0.7
2017-02-12T09:23:51.261Z,0.68
2017-02-12T09:25:00.298Z,0.68
2017-02-12T09:26:09.247Z,0.66
2017-02-12T09:27:18.193Z,0.73
2017-02-12T09:28:27.139Z,0.7
2017-02-12T09:29:36.090Z,0.73
2017-02-12T09:30:45.040Z,0.69
2017-02-12T09:31:54.005Z,0.73
2017-02-12T09:33:02.958Z,0.66
2017-02-12T09:34:11.905Z,0.79
2017-02-12T09:35:20.904Z,0.87
2017-02-12T09:36:29.855Z,0.97
2017-02-12T09:37:38.803Z,1.04
2017-02-12T09:38:47.757Z,0.98
2017-02-12T09:39:56.702Z,0.88
2017-02-12T09:41:05.658Z,0.93
2017-02-12T09:42:14.607Z,0.94
2017-02-12T09:43:23.599Z,0.94
2017-02-12T09:44:32.545Z,0.98
2017-02-12T09:45:41.494Z,0.98
2017-02-12T09:46:50.447Z,0.94
2017-02-12T09:47:59.806Z,1.05
2017-02-12T09:49:08.782Z,1.09
2017-02-12T09:50:17.732Z,0.97
2017-02-12T09:51:26.681Z,1.02
2017-02-12T09:52:35.718Z,1.14
2017-02-12T09:53:44.668Z,1.22
2017-02-12T09:54:53.703Z,1.2
2017-02-12T09:56:02.650Z,1.2
2017-02-12T09:57:11.603Z,1.15
2017-02-12T09:58:20.641Z,1.08
2017-02-12T09:59:29.589Z,1.08
2017-02-12T10:00:38.534Z,1.16
2017-02-12T10:01:47.485Z,1.09
2017-02-12T10:02:56.429Z,1.16
2017-02-12T10:04:05.470Z,1.15
2017-02-12T10:05:14.419Z,1.2
2017-02-12T10:06:23.366Z,1.16
2017-02-12T10:07:32.403Z,1.14
2017-02-12T10:08:41.442Z,1.15
2017-02-12T10:09:50.796Z,1.16
2017-02-12T10:11:00.188Z,1.18
2017-02-12T10:12:09.139Z,1.15
2017-02-12T10:13:18.083Z,1.29
2017-02-12T10:14:27.030Z,1.23
2017-02-12T10:15:36.062Z,1.18
2017-02-12T10:16:45.014Z,1.16
2017-02-12T10:17:53.966Z,1.18
2017-02-12T10:19:03.337Z,1.18
2017-02-12T10:20:12.287Z,1.09
2017-02-12T10:21:21.239Z,1.09
2017-02-12T10:22:30.190Z,1.16
2017-02-12T10:23:39.234Z,1.15
2017-02-12T10:24:48.180Z,1.12
2017-02-12T10:25:57.129Z,1.18
2017-02-12T10:27:06.487Z,1.23
2017-02-12T10:28:15.523Z,1.22
2017-02-12T10:29:24.475Z,1.23
2017-02-12T10:30:33.426Z,1.3
2017-02-12T10:31:42.375Z,1.27
2017-02-12T10:32:51.332Z,1.32
2017-02-12T10:34:00.284Z,1.4
2017-02-12T10:35:09.238Z,1.37
2017-02-12T10:36:18.189Z,1.33
2017-02-12T10:37:27.137Z,1.29
2017-02-12T10:38:36.108Z,1.41
2017-02-12T10:39:45.060Z,1.36
2017-02-12T10:40:54.013Z,1.5
2017-02-12T10:42:03.047Z,1.41
2017-02-12T10:43:12.000Z,1.48
2017-02-12T10:44:20.953Z,1.47
2017-02-12T10:45:29.903Z,1.47
2017-02-12T10:46:38.936Z,1.45
2017-02-12T10:47:47.886Z,1.5
2017-02-12T10:48:57.253Z,1.44
2017-02-12T10:50:06.290Z,1.47
2017-02-12T10:51:15.648Z,1.62
2017-02-12T10:52:24.597Z,1.54
2017-02-12T10:53:33.547Z,1.55
2017-02-12T10:54:42.494Z,1.6
2017-02-12T10:55:51.532Z,1.7
2017-02-12T10:57:00.480Z,1.47
2017-02-12T10:58:09.510Z,1.42
2017-02-12T10:59:18.460Z,1.44
2017-02-12T11:00:27.910Z,1.44
2017-02-12T11:01:36.865Z,1.32
2017-02-12T11:02:45.813Z,1.32
2017-02-12T11:03:54.830Z,1.42
2017-02-12T11:05:04.188Z,1.44
2017-02-12T11:06:13.133Z,1.41
2017-02-12T11:07:22.080Z,1.54
2017-02-12T11:08:31.435Z,1.51
2017-02-12T11:09:40.387Z,1.47
2017-02-12T11:10:49.339Z,1.44
2017-02-12T11:11:58.313Z,1.41
2017-02-12T11:13:07.260Z,1.44
2017-02-12T11:14:16.211Z,1.44
2017-02-12T11:15:27.250Z,1.5
2017-02-12T11:16:39.047Z,1.44
2017-02-12T11:17:50.180Z,1.48
2017-02-12T11:19:01.099Z,1.5
2017-02-12T11:20:10.692Z,1.48
2017-02-12T11:21:20.748Z,1.48
2017-02-12T11:22:30.375Z,1.58
2017-02-12T11:23:40.167Z,1.68
2017-02-12T11:24:50.622Z,1.73
2017-02-12T11:26:01.495Z,1.59
2017-02-12T11:27:12.875Z,1.7
2017-02-12T11:28:23.545Z,1.73
2017-02-12T11:29:34.063Z,1.72
2017-02-12T11:30:45.417Z,1.69
2017-02-12T11:31:56.255Z,1.69
2017-02-12T11:33:07.913Z,1.73
2017-02-12T11:34:17.723Z,1.7
2017-02-12T11:35:28.577Z,1.7
2017-02-12T11:36:38.492Z,1.69
2017-02-12T11:37:47.530Z,1.52
2017-02-12T11:38:57.229Z,1.51
2017-02-12T11:40:07.918Z,1.54
2017-02-12T11:41:18.963Z,1.6
2017-02-12T11:42:29.664Z,1.55
2017-02-12T11:43:40.474Z,1.52
2017-02-12T11:44:51.570Z,1.5
2017-02-12T11:46:01.450Z,1.44
2017-02-12T11:47:11.003Z,1.55
2017-02-12T11:48:20.288Z,1.48
2017-02-12T11:49:29.959Z,1.51
2017-02-12T11:50:40.035Z,1.45
2017-02-12T11:51:49.791Z,1.5
2017-02-12T11:52:59.608Z,1.37
2017-02-12T11:54:08.894Z,1.44
2017-02-12T11:55:17.841Z,1.41
2017-02-12T11:56:27.436Z,1.44
2017-02-12T11:57:36.993Z,1.42
2017-02-12T11:58:46.900Z,1.44
2017-02-12T11:59:56.079Z,1.37
2017-02-12T12:01:05.336Z,1.4
2017-02-12T12:02:15.505Z,1.45
2017-02-12T12:03:25.406Z,1.47
2017-02-12T12:04:34.683Z,1.44
2017-02-12T12:05:44.140Z,1.5
2017-02-12T12:06:53.195Z,1.5
2017-02-12T12:08:02.147Z,1.54
2017-02-12T12:09:11.095Z,1.42
2017-02-12T12:10:20.043Z,1.55
2017-02-12T12:11:28.990Z,1.51
2017-02-12T12:12:37.940Z,1.51
2017-02-12T12:13:47.065Z,1.55
2017-02-12T12:14:56.013Z,1.59
2017-02-12T12:16:04.966Z,1.68
2017-02-12T12:17:13.913Z,1.69
2017-02-12T12:18:22.861Z,1.72
2017-02-12T12:19:31.810Z,1.69
2017-02-12T12:20:40.760Z,1.72
2017-02-12T12:21:49.714Z,1.83
2017-02-12T12:22:58.754Z,1.84
2017-02-12T12:24:08.496Z,1.91
2017-02-12T12:25:18.022Z,1.98
2017-02-12T12:26:26.972Z,1.86
2017-02-12T12:27:36.861Z,1.86
2017-02-12T12:28:46.418Z,1.87
2017-02-12T12:29:55.669Z,1.81
2017-02-12T12:31:04.809Z,1.72
2017-02-12T12:32:13.801Z,1.7
2017-02-12T12:33:23.336Z,1.68
2017-02-12T12:34:32.405Z,1.66
2017-02-12T12:35:42.024Z,1.7
2017-02-12T12:36:50.970Z,1.73
2017-02-12T12:37:59.928Z,1.79
2017-02-12T12:39:08.876Z,1.84
2017-02-12T12:40:18.232Z,1.79
2017-02-12T12:41:27.184Z,1.79
2017-02-12T12:42:36.132Z,1.68
2017-02-12T12:43:45.080Z,1.76
2017-02-12T12:44:54.031Z,1.7
2017-02-12T12:46:03.385Z,1.72
2017-02-12T12:47:12.332Z,1.81
2017-02-12T12:48:21.278Z,1.91
2017-02-12T12:49:30.226Z,1.95
2017-02-12T12:50:39.172Z,2.02
2017-02-12T12:51:48.120Z,2.02
2017-02-12T12:52:57.159Z,2.02
2017-02-12T12:54:06.149Z,2.05
2017-02-12T12:55:15.100Z,2.1
2017-02-12T12:56:24.052Z,2.07
2017-02-12T12:57:33.001Z,2.07
2017-02-12T12:58:41.953Z,2.1
2017-02-12T12:59:50.933Z,2.21
2017-02-12T13:00:59.884Z,2.3
2017-02-12T13:02:09.245Z,2.25
2017-02-12T13:03:18.204Z,2.24
2017-02-12T13:04:27.157Z,2.16
2017-02-12T13:05:36.117Z,2.17
2017-02-12T13:06:45.069Z,2.23
2017-02-12T13:07:54.017Z,2.16
2017-02-12T13:09:03.057Z,2.23
2017-02-12T13:10:12.413Z,2.24
2017-02-12T13:11:21.453Z,2.17
2017-02-12T13:12:30.407Z,1.95
2017-02-12T13:13:39.363Z,2
2017-02-12T13:14:48.313Z,2.05
2017-02-12T13:15:57.268Z,1.99
2017-02-12T13:17:06.227Z,2.05
2017-02-12T13:18:15.174Z,2.07
2017-02-12T13:19:24.119Z,2.03
2017-02-12T13:20:33.065Z,1.95
2017-02-12T13:21:42.006Z,2.05
2017-02-12T13:22:50.955Z,2.05
2017-02-12T13:23:59.901Z,2.12
2017-02-12T13:25:08.850Z,2.17
2017-02-12T13:26:17.801Z,2.23
2017-02-12T13:27:26.751Z,2.25
2017-02-12T13:28:35.703Z,2.27
2017-02-12T13:29:44.652Z,2.28
2017-02-12T13:30:53.776Z,2.23
2017-02-12T13:32:02.726Z,2.21
2017-02-12T13:33:11.683Z,2.09
2017-02-12T13:34:20.631Z,2.16
2017-02-12T13:35:29.582Z,2.21
2017-02-12T13:36:38.940Z,2.18
2017-02-12T13:37:47.893Z,2.21
2017-02-12T13:38:56.844Z,2.17
2017-02-12T13:40:05.799Z,2.16
2017-02-12T13:41:14.749Z,2.18
2017-02-12T13:42:23.698Z,2.18
2017-02-12T13:43:32.646Z,2.12
2017-02-12T13:44:41.611Z,2.2
2017-02-12T13:45:50.561Z,2.23
2017-02-12T13:46:59.919Z,2.1
2017-02-12T13:48:08.868Z,1.98
2017-02-12T13:49:17.819Z,2.05
2017-02-12T13:50:26.853Z,2.06
2017-02-12T13:51:36.214Z,1.95
2017-02-12T13:52:45.161Z,1.95
2017-02-12T13:53:54.110Z,1.99
2017-02-12T13:55:03.062Z,2.03
2017-02-12T13:56:12.008Z,1.99
2017-02-12T13:57:20.972Z,1.93
2017-02-12T13:58:30.006Z,1.98
2017-02-12T13:59:38.956Z,2.05
2017-02-12T14:00:47.905Z,2.03
2017-02-12T14:01:56.945Z,1.98
2017-02-12T14:03:05.893Z,1.93
2017-02-12T14:04:14.946Z,1.8
2017-02-12T14:05:23.983Z,1.8
2017-02-12T14:06:32.934Z,1.88
2017-02-12T14:07:41.972Z,1.81
2017-02-12T14:08:50.924Z,1.83
2017-02-12T14:09:59.880Z,1.79
2017-02-12T14:11:08.838Z,1.73
2017-02-12T14:12:17.788Z,1.73
2017-02-12T14:13:26.775Z,1.8
2017-02-12T14:14:35.719Z,1.81
2017-02-12T14:15:44.669Z,1.84
2017-02-12T14:16:53.707Z,1.86
2017-02-12T14:18:02.653Z,1.93
2017-02-12T14:19:11.610Z,2.02
2017-02-12T14:20:20.559Z,1.91
2017-02-12T14:21:29.523Z,1.81
2017-02-12T14:22:38.476Z,1.87
2017-02-12T14:23:47.464Z,1.93
2017-02-12T14:24:56.501Z,1.98
2017-02-12T14:26:05.455Z,2
2017-02-12T14:27:14.485Z,2.02
2017-02-12T14:28:23.438Z,2.03
2017-02-12T14:29:32.428Z,2
2017-02-12T14:30:41.424Z,1.99
2017-02-12T14:31:50.386Z,1.98
2017-02-12T14:32:59.339Z,1.93
2017-02-12T14:34:08.290Z,1.87
2017-02-12T14:35:17.233Z,1.98
2017-02-12T14:36:26.188Z,2
2017-02-12T14:37:35.135Z,1.98
2017-02-12T14:38:45.299Z,1.99
2017-02-12T14:39:54.256Z,2
2017-02-12T14:41:03.204Z,1.98
2017-02-12T14:42:12.646Z,1.86
2017-02-12T14:43:21.592Z,1.84
2017-02-12T14:44:30.548Z,1.8
2017-02-12T14:45:39.495Z,1.83
2017-02-12T14:46:48.444Z,1.79
2017-02-12T14:47:57.393Z,1.81
2017-02-12T14:49:06.340Z,1.86
2017-02-12T14:50:15.288Z,1.83
2017-02-12T14:51:24.240Z,1.84
2017-02-12T14:52:33.280Z,1.83
2017-02-12T14:53:42.233Z,1.86
2017-02-12T14:54:51.272Z,1.86
2017-02-12T14:56:00.628Z,1.72
2017-02-12T14:57:09.599Z,1.7
2017-02-12T14:58:18.956Z,1.68
2017-02-12T14:59:28.314Z,1.68
2017-02-12T15:00:37.269Z,1.6
2017-02-12T15:01:46.220Z,1.58
2017-02-12T15:02:55.267Z,1.44
2017-02-12T15:04:04.215Z,1.58
2017-02-12T15:05:13.164Z,1.48
2017-02-12T15:06:22.205Z,1.45
2017-02-12T15:07:31.149Z,1.47
2017-02-12T15:08:40.101Z,1.44
2017-02-12T15:09:49.070Z,1.44
2017-02-12T15:10:58.020Z,1.47
2017-02-12T15:12:07.026Z,1.4
2017-02-12T15:13:15.975Z,1.34
2017-02-12T15:14:24.930Z,1.32
2017-02-12T15:15:33.962Z,1.4
2017-02-12T15:16:42.997Z,1.4
2017-02-12T15:17:51.951Z,1.29
2017-02-12T15:19:01.313Z,1.44
2017-02-12T15:20:10.277Z,1.47
2017-02-12T15:21:19.236Z,1.41
2017-02-12T15:22:28.187Z,1.4